sensor_id;sensor_type;location;lat;lon;timestamp;temperature;humidity
40756;DHT22;26461;45.630;9.418;2022-09-21T00:01:22;18.70;69.70
40756;DHT22;26461;45.630;9.418;2022-09-21T00:04:32;18.70;69.10
40756;DHT22;26461;45.630;9.418;2022-09-21T00:07:43;18.70;69.30
40756;DHT22;26461;45.630;9.418;2022-09-21T00:10:52;18.70;69.40
40756;DHT22;26461;45.630;9.418;2022-09-21T00:14:09;18.60;69.60
40756;DHT22;26461;45.630;9.418;2022-09-21T00:17:20;18.60;69.60
40756;DHT22;26461;45.630;9.418;2022-09-21T00:20:30;18.50;69.50
40756;DHT22;26461;45.630;9.418;2022-09-21T00:23:41;18.50;69.60
40756;DHT22;26461;45.630;9.418;2022-09-21T00:26:51;18.60;69.90
40756;DHT22;26461;45.630;9.418;2022-09-21T00:30:02;18.50;70.00
40756;DHT22;26461;45.630;9.418;2022-09-21T00:33:13;18.50;70.10
40756;DHT22;26461;45.630;9.418;2022-09-21T00:36:24;18.50;70.30
40756;DHT22;26461;45.630;9.418;2022-09-21T00:39:34;18.50;70.30
40756;DHT22;26461;45.630;9.418;2022-09-21T00:42:44;18.50;70.50
40756;DHT22;26461;45.630;9.418;2022-09-21T00:46:21;18.50;70.60
40756;DHT22;26461;45.630;9.418;2022-09-21T00:49:34;18.50;71.00
40756;DHT22;26461;45.630;9.418;2022-09-21T00:52:51;18.50;71.10
40756;DHT22;26461;45.630;9.418;2022-09-21T00:56:02;18.40;71.20
40756;DHT22;26461;45.630;9.418;2022-09-21T00:59:14;18.40;71.50
40756;DHT22;26461;45.630;9.418;2022-09-21T01:02:25;18.40;71.70
40756;DHT22;26461;45.630;9.418;2022-09-21T01:05:36;18.40;72.10
40756;DHT22;26461;45.630;9.418;2022-09-21T01:08:50;18.40;72.20
40756;DHT22;26461;45.630;9.418;2022-09-21T01:18:46;18.30;72.80
40756;DHT22;26461;45.630;9.418;2022-09-21T01:22:24;18.30;73.10
40756;DHT22;26461;45.630;9.418;2022-09-21T01:32:31;18.30;73.60
40756;DHT22;26461;45.630;9.418;2022-09-21T01:35:46;18.30;73.70
40756;DHT22;26461;45.630;9.418;2022-09-21T01:39:18;18.20;73.90
40756;DHT22;26461;45.630;9.418;2022-09-21T01:42:31;18.20;73.90
40756;DHT22;26461;45.630;9.418;2022-09-21T01:45:46;18.20;74.20
40756;DHT22;26461;45.630;9.418;2022-09-21T01:49:02;18.20;74.30
40756;DHT22;26461;45.630;9.418;2022-09-21T01:52:24;18.20;74.40
40756;DHT22;26461;45.630;9.418;2022-09-21T01:55:46;18.20;74.60
40756;DHT22;26461;45.630;9.418;2022-09-21T01:59:09;18.20;74.60
40756;DHT22;26461;45.630;9.418;2022-09-21T02:02:45;18.20;75.00
40756;DHT22;26461;45.630;9.418;2022-09-21T02:06:00;18.20;75.30
40756;DHT22;26461;45.630;9.418;2022-09-21T02:09:10;18.20;75.50
40756;DHT22;26461;45.630;9.418;2022-09-21T02:12:21;18.20;75.80
40756;DHT22;26461;45.630;9.418;2022-09-21T02:19:08;18.10;76.20
40756;DHT22;26461;45.630;9.418;2022-09-21T02:26:16;18.20;77.10
40756;DHT22;26461;45.630;9.418;2022-09-21T02:33:05;18.10;77.30
40756;DHT22;26461;45.630;9.418;2022-09-21T02:42:55;18.10;77.80
40756;DHT22;26461;45.630;9.418;2022-09-21T02:46:10;18.20;78.10
40756;DHT22;26461;45.630;9.418;2022-09-21T02:49:27;18.10;78.20
40756;DHT22;26461;45.630;9.418;2022-09-21T02:52:41;18.10;78.20
40756;DHT22;26461;45.630;9.418;2022-09-21T02:55:53;18.10;78.20
40756;DHT22;26461;45.630;9.418;2022-09-21T02:59:05;18.20;78.50
40756;DHT22;26461;45.630;9.418;2022-09-21T03:02:16;18.20;78.50
40756;DHT22;26461;45.630;9.418;2022-09-21T03:05:26;18.20;78.40
40756;DHT22;26461;45.630;9.418;2022-09-21T03:08:36;18.20;79.30
40756;DHT22;26461;45.630;9.418;2022-09-21T03:11:46;18.20;78.70
40756;DHT22;26461;45.630;9.418;2022-09-21T03:14:56;18.20;78.70
40756;DHT22;26461;45.630;9.418;2022-09-21T03:18:07;18.20;78.80
40756;DHT22;26461;45.630;9.418;2022-09-21T03:21:20;18.20;78.90
40756;DHT22;26461;45.630;9.418;2022-09-21T03:24:30;18.20;78.80
40756;DHT22;26461;45.630;9.418;2022-09-21T03:27:56;18.20;78.70
40756;DHT22;26461;45.630;9.418;2022-09-21T03:31:06;18.20;78.70
40756;DHT22;26461;45.630;9.418;2022-09-21T03:34:16;18.20;78.70
40756;DHT22;26461;45.630;9.418;2022-09-21T03:37:26;18.20;78.80
40756;DHT22;26461;45.630;9.418;2022-09-21T03:40:36;18.30;78.90
40756;DHT22;26461;45.630;9.418;2022-09-21T03:43:46;18.20;78.90
40756;DHT22;26461;45.630;9.418;2022-09-21T03:46:56;18.20;78.90
40756;DHT22;26461;45.630;9.418;2022-09-21T03:50:07;18.20;79.00
40756;DHT22;26461;45.630;9.418;2022-09-21T03:53:17;18.20;78.90
40756;DHT22;26461;45.630;9.418;2022-09-21T03:56:26;18.20;79.00
40756;DHT22;26461;45.630;9.418;2022-09-21T03:59:37;18.20;79.00
40756;DHT22;26461;45.630;9.418;2022-09-21T04:02:47;18.20;79.70
40756;DHT22;26461;45.630;9.418;2022-09-21T04:05:57;18.10;79.10
40756;DHT22;26461;45.630;9.418;2022-09-21T04:09:07;18.20;79.40
40756;DHT22;26461;45.630;9.418;2022-09-21T04:12:20;18.10;79.50
40756;DHT22;26461;45.630;9.418;2022-09-21T04:15:30;18.10;79.30
40756;DHT22;26461;45.630;9.418;2022-09-21T04:18:40;18.10;79.10
40756;DHT22;26461;45.630;9.418;2022-09-21T04:21:46;18.10;78.70
40756;DHT22;26461;45.630;9.418;2022-09-21T04:24:56;18.00;78.50
40756;DHT22;26461;45.630;9.418;2022-09-21T04:28:06;18.10;78.70
40756;DHT22;26461;45.630;9.418;2022-09-21T04:31:16;18.10;78.60
40756;DHT22;26461;45.630;9.418;2022-09-21T04:34:26;18.10;78.60
40756;DHT22;26461;45.630;9.418;2022-09-21T04:37:31;18.10;78.70
40756;DHT22;26461;45.630;9.418;2022-09-21T04:40:36;18.10;79.10
40756;DHT22;26461;45.630;9.418;2022-09-21T04:43:47;18.10;80.20
40756;DHT22;26461;45.630;9.418;2022-09-21T04:46:52;18.10;80.40
40756;DHT22;26461;45.630;9.418;2022-09-21T04:50:02;18.00;80.60
40756;DHT22;26461;45.630;9.418;2022-09-21T04:53:12;18.00;80.80
40756;DHT22;26461;45.630;9.418;2022-09-21T04:56:21;17.90;80.60
40756;DHT22;26461;45.630;9.418;2022-09-21T04:59:31;17.80;80.60
40756;DHT22;26461;45.630;9.418;2022-09-21T05:02:41;17.70;80.60
40756;DHT22;26461;45.630;9.418;2022-09-21T05:05:53;17.50;81.00
40756;DHT22;26461;45.630;9.418;2022-09-21T05:09:03;17.40;81.50
40756;DHT22;26461;45.630;9.418;2022-09-21T05:12:33;17.40;83.00
40756;DHT22;26461;45.630;9.418;2022-09-21T05:15:43;17.30;83.80
40756;DHT22;26461;45.630;9.418;2022-09-21T05:18:53;17.30;84.40
40756;DHT22;26461;45.630;9.418;2022-09-21T05:22:04;17.30;84.60
40756;DHT22;26461;45.630;9.418;2022-09-21T05:25:14;17.30;85.00
40756;DHT22;26461;45.630;9.418;2022-09-21T05:28:25;17.20;85.10
40756;DHT22;26461;45.630;9.418;2022-09-21T05:31:47;17.20;85.60
40756;DHT22;26461;45.630;9.418;2022-09-21T05:35:17;17.20;86.00
40756;DHT22;26461;45.630;9.418;2022-09-21T05:38:28;17.20;86.50
40756;DHT22;26461;45.630;9.418;2022-09-21T05:41:38;17.20;87.00
40756;DHT22;26461;45.630;9.418;2022-09-21T05:44:48;17.20;87.40
40756;DHT22;26461;45.630;9.418;2022-09-21T05:48:22;17.20;87.70
40756;DHT22;26461;45.630;9.418;2022-09-21T05:55:14;17.20;87.80
40756;DHT22;26461;45.630;9.418;2022-09-21T05:58:42;17.30;87.90
40756;DHT22;26461;45.630;9.418;2022-09-21T06:05:28;17.20;88.40
40756;DHT22;26461;45.630;9.418;2022-09-21T06:08:38;17.20;88.50
40756;DHT22;26461;45.630;9.418;2022-09-21T06:11:48;17.30;88.70
40756;DHT22;26461;45.630;9.418;2022-09-21T06:14:58;17.30;88.80
40756;DHT22;26461;45.630;9.418;2022-09-21T06:18:08;17.30;88.90
40756;DHT22;26461;45.630;9.418;2022-09-21T06:21:18;17.30;89.10
40756;DHT22;26461;45.630;9.418;2022-09-21T06:24:28;17.30;88.90
40756;DHT22;26461;45.630;9.418;2022-09-21T06:27:32;17.30;89.50
40756;DHT22;26461;45.630;9.418;2022-09-21T06:30:43;17.30;88.90
40756;DHT22;26461;45.630;9.418;2022-09-21T06:33:53;17.30;88.60
40756;DHT22;26461;45.630;9.418;2022-09-21T06:37:03;17.30;89.60
40756;DHT22;26461;45.630;9.418;2022-09-21T06:40:13;17.30;89.00
40756;DHT22;26461;45.630;9.418;2022-09-21T06:43:23;17.30;88.70
40756;DHT22;26461;45.630;9.418;2022-09-21T06:46:33;17.30;88.60
40756;DHT22;26461;45.630;9.418;2022-09-21T06:49:43;17.30;88.70
40756;DHT22;26461;45.630;9.418;2022-09-21T06:52:53;17.30;88.90
40756;DHT22;26461;45.630;9.418;2022-09-21T06:56:08;17.30;88.80
40756;DHT22;26461;45.630;9.418;2022-09-21T06:59:19;17.30;88.90
40756;DHT22;26461;45.630;9.418;2022-09-21T07:02:29;17.30;88.90
40756;DHT22;26461;45.630;9.418;2022-09-21T07:05:43;17.30;88.20
40756;DHT22;26461;45.630;9.418;2022-09-21T07:08:53;17.40;88.00
40756;DHT22;26461;45.630;9.418;2022-09-21T07:12:03;17.40;88.00
40756;DHT22;26461;45.630;9.418;2022-09-21T07:15:17;17.40;88.20
40756;DHT22;26461;45.630;9.418;2022-09-21T07:18:28;17.40;88.20
40756;DHT22;26461;45.630;9.418;2022-09-21T07:22:02;17.40;88.30
40756;DHT22;26461;45.630;9.418;2022-09-21T07:25:09;17.40;88.70
40756;DHT22;26461;45.630;9.418;2022-09-21T07:28:16;17.40;88.90
40756;DHT22;26461;45.630;9.418;2022-09-21T07:31:20;17.50;88.90
40756;DHT22;26461;45.630;9.418;2022-09-21T07:34:26;17.50;89.10
40756;DHT22;26461;45.630;9.418;2022-09-21T07:37:36;17.50;88.10
40756;DHT22;26461;45.630;9.418;2022-09-21T07:40:46;17.50;87.90
40756;DHT22;26461;45.630;9.418;2022-09-21T07:43:56;17.50;87.70
40756;DHT22;26461;45.630;9.418;2022-09-21T07:47:06;17.50;87.40
40756;DHT22;26461;45.630;9.418;2022-09-21T07:50:17;17.50;88.20
40756;DHT22;26461;45.630;9.418;2022-09-21T07:53:26;17.50;88.30
40756;DHT22;26461;45.630;9.418;2022-09-21T07:56:37;17.60;87.90
40756;DHT22;26461;45.630;9.418;2022-09-21T07:59:47;17.50;87.50
40756;DHT22;26461;45.630;9.418;2022-09-21T08:02:57;17.50;87.20
40756;DHT22;26461;45.630;9.418;2022-09-21T08:06:10;17.60;87.40
40756;DHT22;26461;45.630;9.418;2022-09-21T08:09:19;17.60;87.90
40756;DHT22;26461;45.630;9.418;2022-09-21T08:12:29;17.60;88.20
40756;DHT22;26461;45.630;9.418;2022-09-21T08:15:39;17.70;87.80
40756;DHT22;26461;45.630;9.418;2022-09-21T08:18:49;17.70;87.10
40756;DHT22;26461;45.630;9.418;2022-09-21T08:22:00;17.70;86.50
40756;DHT22;26461;45.630;9.418;2022-09-21T08:25:10;17.80;85.50
40756;DHT22;26461;45.630;9.418;2022-09-21T08:28:21;17.80;85.30
40756;DHT22;26461;45.630;9.418;2022-09-21T08:31:31;17.90;84.20
40756;DHT22;26461;45.630;9.418;2022-09-21T08:34:41;17.90;83.90
40756;DHT22;26461;45.630;9.418;2022-09-21T08:37:52;17.90;84.10
40756;DHT22;26461;45.630;9.418;2022-09-21T08:41:17;17.90;84.30
40756;DHT22;26461;45.630;9.418;2022-09-21T08:44:37;18.00;84.30
40756;DHT22;26461;45.630;9.418;2022-09-21T08:47:53;18.10;84.60
40756;DHT22;26461;45.630;9.418;2022-09-21T08:51:06;18.10;84.70
40756;DHT22;26461;45.630;9.418;2022-09-21T08:57:38;18.30;83.10
40756;DHT22;26461;45.630;9.418;2022-09-21T09:08:16;18.50;82.80
40756;DHT22;26461;45.630;9.418;2022-09-21T09:11:54;18.60;81.80
40756;DHT22;26461;45.630;9.418;2022-09-21T09:15:22;18.70;82.20
40756;DHT22;26461;45.630;9.418;2022-09-21T09:18:51;18.70;82.60
40756;DHT22;26461;45.630;9.418;2022-09-21T09:22:05;18.80;81.80
40756;DHT22;26461;45.630;9.418;2022-09-21T09:25:21;18.90;81.30
40756;DHT22;26461;45.630;9.418;2022-09-21T09:28:37;19.00;79.90
40756;DHT22;26461;45.630;9.418;2022-09-21T09:31:50;19.10;78.90
40756;DHT22;26461;45.630;9.418;2022-09-21T09:35:18;19.10;77.40
40756;DHT22;26461;45.630;9.418;2022-09-21T09:38:38;19.20;77.60
40756;DHT22;26461;45.630;9.418;2022-09-21T09:42:14;19.20;77.90
40756;DHT22;26461;45.630;9.418;2022-09-21T09:48:57;19.30;76.30
40756;DHT22;26461;45.630;9.418;2022-09-21T09:52:11;19.30;76.70
40756;DHT22;26461;45.630;9.418;2022-09-21T09:55:26;19.40;76.20
40756;DHT22;26461;45.630;9.418;2022-09-21T09:58:48;19.40;75.60
40756;DHT22;26461;45.630;9.418;2022-09-21T10:02:05;19.50;75.50
40756;DHT22;26461;45.630;9.418;2022-09-21T10:05:32;19.50;76.00
40756;DHT22;26461;45.630;9.418;2022-09-21T10:08:44;19.60;75.10
40756;DHT22;26461;45.630;9.418;2022-09-21T10:12:16;19.60;74.50
40756;DHT22;26461;45.630;9.418;2022-09-21T10:15:28;19.60;74.20
40756;DHT22;26461;45.630;9.418;2022-09-21T10:18:44;19.60;73.90
40756;DHT22;26461;45.630;9.418;2022-09-21T10:22:00;19.60;74.00
40756;DHT22;26461;45.630;9.418;2022-09-21T10:25:18;19.60;74.10
40756;DHT22;26461;45.630;9.418;2022-09-21T10:28:29;19.70;74.40
40756;DHT22;26461;45.630;9.418;2022-09-21T10:31:53;19.70;74.80
40756;DHT22;26461;45.630;9.418;2022-09-21T10:38:20;19.60;74.50
40756;DHT22;26461;45.630;9.418;2022-09-21T10:41:36;19.60;75.10
40756;DHT22;26461;45.630;9.418;2022-09-21T10:44:44;19.50;74.60
40756;DHT22;26461;45.630;9.418;2022-09-21T10:48:07;19.50;74.50
40756;DHT22;26461;45.630;9.418;2022-09-21T10:51:28;19.40;74.30
40756;DHT22;26461;45.630;9.418;2022-09-21T10:54:34;19.40;74.20
40756;DHT22;26461;45.630;9.418;2022-09-21T10:57:44;19.40;74.30
40756;DHT22;26461;45.630;9.418;2022-09-21T11:00:56;19.40;74.80
40756;DHT22;26461;45.630;9.418;2022-09-21T11:07:48;19.40;74.10
40756;DHT22;26461;45.630;9.418;2022-09-21T11:14:58;19.50;74.40
40756;DHT22;26461;45.630;9.418;2022-09-21T11:28:36;19.70;74.60
40756;DHT22;26461;45.630;9.418;2022-09-21T11:32:15;19.80;75.00
40756;DHT22;26461;45.630;9.418;2022-09-21T12:03:26;20.50;72.60
40756;DHT22;26461;45.630;9.418;2022-09-21T12:06:49;20.50;72.50
40756;DHT22;26461;45.630;9.418;2022-09-21T12:10:10;20.60;72.20
40756;DHT22;26461;45.630;9.418;2022-09-21T12:16:59;20.80;71.40
40756;DHT22;26461;45.630;9.418;2022-09-21T12:24:00;21.00;69.50
40756;DHT22;26461;45.630;9.418;2022-09-21T12:27:30;21.20;67.90
40756;DHT22;26461;45.630;9.418;2022-09-21T12:30:44;21.30;68.20
40756;DHT22;26461;45.630;9.418;2022-09-21T12:37:17;21.50;66.30
40756;DHT22;26461;45.630;9.418;2022-09-21T12:40:39;21.50;65.10
40756;DHT22;26461;45.630;9.418;2022-09-21T12:44:01;21.50;65.20
40756;DHT22;26461;45.630;9.418;2022-09-21T12:47:14;21.60;64.40
40756;DHT22;26461;45.630;9.418;2022-09-21T12:53:54;21.70;63.40
40756;DHT22;26461;45.630;9.418;2022-09-21T13:04:36;21.50;62.50
40756;DHT22;26461;45.630;9.418;2022-09-21T13:11:08;21.40;62.40
40756;DHT22;26461;45.630;9.418;2022-09-21T13:14:19;21.40;61.30
40756;DHT22;26461;45.630;9.418;2022-09-21T13:17:32;21.40;62.00
40756;DHT22;26461;45.630;9.418;2022-09-21T13:20:40;21.40;62.50
40756;DHT22;26461;45.630;9.418;2022-09-21T13:24:01;21.50;62.60
40756;DHT22;26461;45.630;9.418;2022-09-21T13:27:13;21.40;62.40
40756;DHT22;26461;45.630;9.418;2022-09-21T13:40:32;21.20;60.00
40756;DHT22;26461;45.630;9.418;2022-09-21T13:47:07;21.10;60.20
40756;DHT22;26461;45.630;9.418;2022-09-21T13:53:38;20.90;60.50
40756;DHT22;26461;45.630;9.418;2022-09-21T14:00:49;20.90;61.10
40756;DHT22;26461;45.630;9.418;2022-09-21T14:04:05;20.90;61.20
40756;DHT22;26461;45.630;9.418;2022-09-21T14:07:29;20.90;61.70
40756;DHT22;26461;45.630;9.418;2022-09-21T14:10:48;20.90;61.10
40756;DHT22;26461;45.630;9.418;2022-09-21T14:18:36;20.90;61.50
40756;DHT22;26461;45.630;9.418;2022-09-21T14:21:25;20.90;61.50
40756;DHT22;26461;45.630;9.418;2022-09-21T14:24:42;20.90;61.30
40756;DHT22;26461;45.630;9.418;2022-09-21T14:27:50;20.90;61.10
40756;DHT22;26461;45.630;9.418;2022-09-21T14:31:15;21.00;61.40
40756;DHT22;26461;45.630;9.418;2022-09-21T14:34:31;21.00;61.10
40756;DHT22;26461;45.630;9.418;2022-09-21T14:37:48;21.00;61.30
40756;DHT22;26461;45.630;9.418;2022-09-21T14:41:04;21.00;60.20
40756;DHT22;26461;45.630;9.418;2022-09-21T14:44:19;21.10;59.70
40756;DHT22;26461;45.630;9.418;2022-09-21T14:47:55;21.10;59.50
40756;DHT22;26461;45.630;9.418;2022-09-21T14:51:32;21.10;59.80
40756;DHT22;26461;45.630;9.418;2022-09-21T14:55:07;21.20;60.00
40756;DHT22;26461;45.630;9.418;2022-09-21T14:58:33;21.30;60.20
40756;DHT22;26461;45.630;9.418;2022-09-21T15:01:58;21.40;59.70
40756;DHT22;26461;45.630;9.418;2022-09-21T15:05:11;21.50;59.80
40756;DHT22;26461;45.630;9.418;2022-09-21T15:12:15;21.70;59.80
40756;DHT22;26461;45.630;9.418;2022-09-21T15:22:27;22.20;58.60
40756;DHT22;26461;45.630;9.418;2022-09-21T15:25:37;22.20;58.20
40756;DHT22;26461;45.630;9.418;2022-09-21T15:28:49;22.20;58.00
40756;DHT22;26461;45.630;9.418;2022-09-21T15:32:01;22.20;58.10
40756;DHT22;26461;45.630;9.418;2022-09-21T15:35:24;22.20;57.60
40756;DHT22;26461;45.630;9.418;2022-09-21T15:38:32;22.20;57.60
40756;DHT22;26461;45.630;9.418;2022-09-21T15:41:46;22.20;57.60
40756;DHT22;26461;45.630;9.418;2022-09-21T15:45:15;22.20;57.20
40756;DHT22;26461;45.630;9.418;2022-09-21T15:48:38;22.10;56.90
40756;DHT22;26461;45.630;9.418;2022-09-21T15:55:22;22.10;56.90
40756;DHT22;26461;45.630;9.418;2022-09-21T15:58:31;22.10;57.60
40756;DHT22;26461;45.630;9.418;2022-09-21T16:01:54;22.10;57.20
40756;DHT22;26461;45.630;9.418;2022-09-21T16:05:10;22.20;57.40
40756;DHT22;26461;45.630;9.418;2022-09-21T16:08:29;22.30;57.10
40756;DHT22;26461;45.630;9.418;2022-09-21T16:11:40;22.40;56.80
40756;DHT22;26461;45.630;9.418;2022-09-21T16:14:49;22.50;56.80
40756;DHT22;26461;45.630;9.418;2022-09-21T16:18:04;22.60;57.20
40756;DHT22;26461;45.630;9.418;2022-09-21T16:21:30;22.70;57.20
40756;DHT22;26461;45.630;9.418;2022-09-21T16:24:52;22.80;56.60
40756;DHT22;26461;45.630;9.418;2022-09-21T16:28:27;22.80;56.60
40756;DHT22;26461;45.630;9.418;2022-09-21T16:31:39;22.90;56.50
40756;DHT22;26461;45.630;9.418;2022-09-21T16:34:50;23.00;55.80
40756;DHT22;26461;45.630;9.418;2022-09-21T16:38:01;23.10;55.40
40756;DHT22;26461;45.630;9.418;2022-09-21T16:41:12;23.10;55.40
40756;DHT22;26461;45.630;9.418;2022-09-21T16:44:25;23.10;55.50
40756;DHT22;26461;45.630;9.418;2022-09-21T16:47:43;23.00;55.40
40756;DHT22;26461;45.630;9.418;2022-09-21T16:50:53;22.90;55.50
40756;DHT22;26461;45.630;9.418;2022-09-21T16:54:03;22.80;55.50
40756;DHT22;26461;45.630;9.418;2022-09-21T16:57:13;22.60;55.00
40756;DHT22;26461;45.630;9.418;2022-09-21T17:00:29;22.40;55.50
40756;DHT22;26461;45.630;9.418;2022-09-21T17:03:40;22.20;55.80
40756;DHT22;26461;45.630;9.418;2022-09-21T17:06:51;22.00;56.00
40756;DHT22;26461;45.630;9.418;2022-09-21T17:10:13;21.70;56.30
40756;DHT22;26461;45.630;9.418;2022-09-21T17:13:25;21.60;56.60
40756;DHT22;26461;45.630;9.418;2022-09-21T17:16:37;21.40;57.30
40756;DHT22;26461;45.630;9.418;2022-09-21T17:19:50;21.20;57.60
40756;DHT22;26461;45.630;9.418;2022-09-21T17:23:01;21.10;58.10
40756;DHT22;26461;45.630;9.418;2022-09-21T17:26:16;21.00;58.50
40756;DHT22;26461;45.630;9.418;2022-09-21T17:29:27;20.90;59.00
40756;DHT22;26461;45.630;9.418;2022-09-21T17:32:37;20.80;59.50
40756;DHT22;26461;45.630;9.418;2022-09-21T17:35:44;20.60;60.10
40756;DHT22;26461;45.630;9.418;2022-09-21T17:38:54;20.50;60.60
40756;DHT22;26461;45.630;9.418;2022-09-21T17:42:16;20.40;61.00
40756;DHT22;26461;45.630;9.418;2022-09-21T17:45:54;20.20;61.20
40756;DHT22;26461;45.630;9.418;2022-09-21T17:49:09;20.10;61.00
40756;DHT22;26461;45.630;9.418;2022-09-21T17:52:22;20.10;61.00
40756;DHT22;26461;45.630;9.418;2022-09-21T17:55:55;20.00;60.80
40756;DHT22;26461;45.630;9.418;2022-09-21T17:59:03;19.80;61.00
40756;DHT22;26461;45.630;9.418;2022-09-21T18:02:23;19.70;61.50
40756;DHT22;26461;45.630;9.418;2022-09-21T18:05:33;19.70;61.90
40756;DHT22;26461;45.630;9.418;2022-09-21T18:08:44;19.60;62.50
40756;DHT22;26461;45.630;9.418;2022-09-21T18:12:37;19.50;62.90
40756;DHT22;26461;45.630;9.418;2022-09-21T18:16:25;19.40;63.70
40756;DHT22;26461;45.630;9.418;2022-09-21T18:23:21;19.20;64.50
40756;DHT22;26461;45.630;9.418;2022-09-21T18:26:35;19.10;64.70
40756;DHT22;26461;45.630;9.418;2022-09-21T18:29:48;19.10;65.30
40756;DHT22;26461;45.630;9.418;2022-09-21T18:33:19;19.00;65.50
40756;DHT22;26461;45.630;9.418;2022-09-21T18:47:40;18.90;66.80
40756;DHT22;26461;45.630;9.418;2022-09-21T18:54:42;18.90;67.40
40756;DHT22;26461;45.630;9.418;2022-09-21T18:57:54;18.90;67.70
40756;DHT22;26461;45.630;9.418;2022-09-21T19:01:05;18.90;67.90
40756;DHT22;26461;45.630;9.418;2022-09-21T19:04:16;18.90;68.00
40756;DHT22;26461;45.630;9.418;2022-09-21T19:10:50;18.90;68.40
40756;DHT22;26461;45.630;9.418;2022-09-21T19:24:35;18.80;68.70
40756;DHT22;26461;45.630;9.418;2022-09-21T19:27:51;18.80;69.70
40756;DHT22;26461;45.630;9.418;2022-09-21T19:31:16;18.80;69.60
40756;DHT22;26461;45.630;9.418;2022-09-21T19:34:30;18.70;69.90
40756;DHT22;26461;45.630;9.418;2022-09-21T19:37:41;18.60;69.90
40756;DHT22;26461;45.630;9.418;2022-09-21T19:41:04;18.60;70.30
40756;DHT22;26461;45.630;9.418;2022-09-21T19:44:47;18.50;71.20
40756;DHT22;26461;45.630;9.418;2022-09-21T19:48:09;18.50;71.20
40756;DHT22;26461;45.630;9.418;2022-09-21T19:54:56;18.40;70.80
40756;DHT22;26461;45.630;9.418;2022-09-21T19:58:25;18.40;70.80
40756;DHT22;26461;45.630;9.418;2022-09-21T20:01:57;18.40;70.60
40756;DHT22;26461;45.630;9.418;2022-09-21T20:05:19;18.30;70.60
40756;DHT22;26461;45.630;9.418;2022-09-21T20:12:29;18.30;70.50
40756;DHT22;26461;45.630;9.418;2022-09-21T20:22:46;18.40;70.80
40756;DHT22;26461;45.630;9.418;2022-09-21T20:26:02;18.40;70.80
40756;DHT22;26461;45.630;9.418;2022-09-21T20:29:12;18.40;70.80
40756;DHT22;26461;45.630;9.418;2022-09-21T20:32:22;18.30;70.70
40756;DHT22;26461;45.630;9.418;2022-09-21T20:35:33;18.30;70.80
40756;DHT22;26461;45.630;9.418;2022-09-21T20:38:43;18.30;71.80
40756;DHT22;26461;45.630;9.418;2022-09-21T20:41:53;18.30;71.20
40756;DHT22;26461;45.630;9.418;2022-09-21T20:45:03;18.30;71.70
40756;DHT22;26461;45.630;9.418;2022-09-21T20:48:13;18.30;71.80
40756;DHT22;26461;45.630;9.418;2022-09-21T20:51:25;18.20;71.80
40756;DHT22;26461;45.630;9.418;2022-09-21T20:54:36;18.20;71.60
40756;DHT22;26461;45.630;9.418;2022-09-21T20:57:46;18.20;71.50
40756;DHT22;26461;45.630;9.418;2022-09-21T21:01:06;18.10;71.50
40756;DHT22;26461;45.630;9.418;2022-09-21T21:04:17;18.10;71.30
40756;DHT22;26461;45.630;9.418;2022-09-21T21:07:27;18.10;71.00
40756;DHT22;26461;45.630;9.418;2022-09-21T21:10:45;18.10;70.60
40756;DHT22;26461;45.630;9.418;2022-09-21T21:13:59;18.00;70.50
40756;DHT22;26461;45.630;9.418;2022-09-21T21:17:11;17.90;70.30
40756;DHT22;26461;45.630;9.418;2022-09-21T21:20:25;17.90;70.00
40756;DHT22;26461;45.630;9.418;2022-09-21T21:23:39;17.90;70.30
40756;DHT22;26461;45.630;9.418;2022-09-21T21:27:19;17.80;69.30
40756;DHT22;26461;45.630;9.418;2022-09-21T21:30:31;17.80;68.70
40756;DHT22;26461;45.630;9.418;2022-09-21T21:33:40;17.80;68.10
40756;DHT22;26461;45.630;9.418;2022-09-21T21:36:50;17.80;67.90
40756;DHT22;26461;45.630;9.418;2022-09-21T21:40:01;17.70;68.10
40756;DHT22;26461;45.630;9.418;2022-09-21T21:43:12;17.60;67.90
40756;DHT22;26461;45.630;9.418;2022-09-21T21:46:24;17.60;67.90
40756;DHT22;26461;45.630;9.418;2022-09-21T21:49:34;17.60;67.70
40756;DHT22;26461;45.630;9.418;2022-09-21T21:52:44;17.60;67.50
40756;DHT22;26461;45.630;9.418;2022-09-21T21:56:20;17.60;67.20
40756;DHT22;26461;45.630;9.418;2022-09-21T21:59:32;17.60;67.10
40756;DHT22;26461;45.630;9.418;2022-09-21T22:02:42;17.60;66.80
40756;DHT22;26461;45.630;9.418;2022-09-21T22:05:54;17.50;66.80
40756;DHT22;26461;45.630;9.418;2022-09-21T22:09:05;17.50;67.00
40756;DHT22;26461;45.630;9.418;2022-09-21T22:12:17;17.50;67.00
40756;DHT22;26461;45.630;9.418;2022-09-21T22:15:32;17.50;66.80
40756;DHT22;26461;45.630;9.418;2022-09-21T22:18:43;17.50;66.70
40756;DHT22;26461;45.630;9.418;2022-09-21T22:21:55;17.50;66.70
40756;DHT22;26461;45.630;9.418;2022-09-21T22:25:07;17.50;66.70
40756;DHT22;26461;45.630;9.418;2022-09-21T22:28:17;17.50;66.80
40756;DHT22;26461;45.630;9.418;2022-09-21T22:31:30;17.40;66.70
40756;DHT22;26461;45.630;9.418;2022-09-21T22:34:41;17.40;66.80
40756;DHT22;26461;45.630;9.418;2022-09-21T22:37:51;17.40;66.90
40756;DHT22;26461;45.630;9.418;2022-09-21T22:41:15;17.40;67.00
40756;DHT22;26461;45.630;9.418;2022-09-21T22:44:26;17.40;66.80
40756;DHT22;26461;45.630;9.418;2022-09-21T22:47:36;17.40;67.00
40756;DHT22;26461;45.630;9.418;2022-09-21T22:50:45;17.40;67.00
40756;DHT22;26461;45.630;9.418;2022-09-21T22:53:55;17.40;67.20
40756;DHT22;26461;45.630;9.418;2022-09-21T22:57:00;17.30;67.70
40756;DHT22;26461;45.630;9.418;2022-09-21T23:00:10;17.30;66.90
40756;DHT22;26461;45.630;9.418;2022-09-21T23:03:20;17.20;67.00
40756;DHT22;26461;45.630;9.418;2022-09-21T23:06:33;17.20;67.00
40756;DHT22;26461;45.630;9.418;2022-09-21T23:09:42;17.20;67.20
40756;DHT22;26461;45.630;9.418;2022-09-21T23:12:52;17.10;67.20
40756;DHT22;26461;45.630;9.418;2022-09-21T23:16:07;17.10;67.40
40756;DHT22;26461;45.630;9.418;2022-09-21T23:19:17;17.00;67.50
40756;DHT22;26461;45.630;9.418;2022-09-21T23:22:27;17.10;67.60
40756;DHT22;26461;45.630;9.418;2022-09-21T23:25:38;17.00;67.50
40756;DHT22;26461;45.630;9.418;2022-09-21T23:28:54;17.00;67.40
40756;DHT22;26461;45.630;9.418;2022-09-21T23:32:04;17.00;67.40
40756;DHT22;26461;45.630;9.418;2022-09-21T23:35:14;17.00;67.50
40756;DHT22;26461;45.630;9.418;2022-09-21T23:38:24;17.00;67.70
40756;DHT22;26461;45.630;9.418;2022-09-21T23:41:35;17.00;67.50
40756;DHT22;26461;45.630;9.418;2022-09-21T23:44:45;17.00;67.60
40756;DHT22;26461;45.630;9.418;2022-09-21T23:47:55;16.90;67.50
40756;DHT22;26461;45.630;9.418;2022-09-21T23:51:05;16.90;67.20
40756;DHT22;26461;45.630;9.418;2022-09-21T23:54:16;16.80;67.30
40756;DHT22;26461;45.630;9.418;2022-09-21T23:57:23;16.80;67.40
